createdAt,value
2018-05-07T00:00:31.764Z,23.47
2018-05-07T00:02:59.289Z,17.87
2018-05-07T00:05:27.623Z,20.70
2018-05-07T00:07:55.155Z,19.03
2018-05-07T00:10:23.756Z,21.80
2018-05-07T00:12:51.327Z,21.47
2018-05-07T00:15:18.918Z,21.13
2018-05-07T00:17:46.499Z,19.57
2018-05-07T00:20:14.041Z,22.23
2018-05-07T00:22:41.626Z,21.40
2018-05-07T00:25:09.168Z,23.83
2018-05-07T00:27:36.734Z,21.67
2018-05-07T00:30:04.317Z,19.27
2018-05-07T00:32:37.840Z,19.53
2018-05-07T00:35:05.405Z,21.40
2018-05-07T00:37:32.929Z,20.83
2018-05-07T00:40:00.488Z,21.37
2018-05-07T00:42:28.033Z,21.97
2018-05-07T00:44:55.619Z,18.87
2018-05-07T00:47:23.157Z,22.10
2018-05-07T00:49:50.751Z,22.30
2018-05-07T00:52:18.298Z,18.70
2018-05-07T00:55:00.057Z,19.40
2018-05-07T00:57:27.598Z,17.77
2018-05-07T00:59:55.166Z,20.40
2018-05-07T01:02:22.759Z,18.60
2018-05-07T01:04:50.313Z,18.10
2018-05-07T01:07:17.921Z,18.13
2018-05-07T01:09:45.498Z,17.10
2018-05-07T01:12:13.049Z,16.33
2018-05-07T01:14:40.641Z,15.00
2018-05-07T01:17:08.185Z,16.37
2018-05-07T01:19:35.752Z,12.10
2018-05-07T01:22:03.320Z,12.00
2018-05-07T01:24:30.917Z,15.43
2018-05-07T01:26:58.463Z,14.23
2018-05-07T01:29:26.041Z,14.53
2018-05-07T01:31:53.610Z,11.83
2018-05-07T01:34:21.132Z,12.93
2018-05-07T01:36:48.713Z,16.47
2018-05-07T01:39:16.271Z,14.03
2018-05-07T01:41:43.811Z,13.20
2018-05-07T01:44:11.377Z,12.97
2018-05-07T01:46:38.894Z,12.17
2018-05-07T01:49:06.468Z,15.87
2018-05-07T01:51:34.777Z,11.13
2018-05-07T01:54:02.358Z,11.47
2018-05-07T01:56:29.888Z,11.93
2018-05-07T01:58:58.238Z,13.17
2018-05-07T02:01:26.231Z,11.90
2018-05-07T02:03:53.795Z,11.83
2018-05-07T02:06:21.360Z,14.03
2018-05-07T02:08:48.924Z,11.43
2018-05-07T02:11:16.470Z,11.23
2018-05-07T02:13:44.047Z,11.23
2018-05-07T02:16:11.571Z,11.83
2018-05-07T02:18:39.925Z,13.03
2018-05-07T02:21:07.511Z,14.90
2018-05-07T02:23:35.815Z,12.13
2018-05-07T02:26:03.381Z,13.40
2018-05-07T02:28:30.904Z,13.93
2018-05-07T02:30:58.492Z,14.03
2018-05-07T02:33:26.024Z,13.33
2018-05-07T02:35:53.604Z,14.43
2018-05-07T02:38:21.178Z,12.40
2018-05-07T02:40:48.715Z,14.03
2018-05-07T02:43:16.287Z,13.13
2018-05-07T02:45:43.830Z,13.27
2018-05-07T02:48:11.405Z,13.40
2018-05-07T02:50:38.941Z,13.10
2018-05-07T02:53:06.501Z,12.63
2018-05-07T02:55:34.835Z,14.73
2018-05-07T02:58:03.157Z,13.30
2018-05-07T03:00:30.745Z,14.70
2018-05-07T03:02:58.288Z,14.17
2018-05-07T03:05:25.880Z,13.80
2018-05-07T03:07:53.416Z,14.27
2018-05-07T03:10:20.989Z,14.00
2018-05-07T03:12:48.532Z,15.60
2018-05-07T03:15:16.130Z,12.93
2018-05-07T03:17:44.425Z,14.83
2018-05-07T03:20:11.999Z,13.97
2018-05-07T03:22:39.544Z,14.67
2018-05-07T03:25:07.143Z,16.17
2018-05-07T03:27:34.711Z,13.90
2018-05-07T03:30:02.306Z,14.93
2018-05-07T03:32:29.865Z,15.87
2018-05-07T03:34:57.410Z,14.10
2018-05-07T03:37:24.983Z,15.17
2018-05-07T03:39:52.503Z,14.23
2018-05-07T03:42:20.089Z,14.93
2018-05-07T03:44:48.387Z,15.63
2018-05-07T03:47:15.982Z,13.63
2018-05-07T03:49:47.483Z,13.80
2018-05-07T03:52:15.063Z,14.53
2018-05-07T03:54:42.602Z,14.20
2018-05-07T03:57:10.177Z,14.27
2018-05-07T03:59:37.727Z,13.47
2018-05-07T04:02:05.292Z,16.23
2018-05-07T04:04:32.879Z,13.50
2018-05-07T04:07:00.496Z,12.20
2018-05-07T04:09:28.082Z,13.30
2018-05-07T04:11:55.653Z,11.67
2018-05-07T04:14:23.209Z,13.57
2018-05-07T04:17:02.477Z,11.60
2018-05-07T04:19:41.860Z,12.13
2018-05-07T04:22:21.171Z,12.60
2018-05-07T04:24:48.713Z,10.33
2018-05-07T04:27:17.055Z,11.53
2018-05-07T04:29:44.640Z,12.90
2018-05-07T04:32:12.207Z,13.07
2018-05-07T04:34:39.780Z,13.87
2018-05-07T04:37:07.303Z,15.63
2018-05-07T04:39:35.613Z,14.80
2018-05-07T04:42:03.199Z,14.83
2018-05-07T04:44:30.748Z,14.10
2018-05-07T04:46:58.329Z,14.23
2018-05-07T04:49:25.851Z,14.97
2018-05-07T04:51:53.436Z,15.47
2018-05-07T04:54:21.896Z,17.47
2018-05-07T04:56:49.495Z,14.40
2018-05-07T04:59:17.047Z,13.97
2018-05-07T05:01:44.613Z,14.43
2018-05-07T05:04:12.197Z,13.13
2018-05-07T05:06:39.737Z,14.17
2018-05-07T05:09:08.072Z,14.27
2018-05-07T05:11:35.625Z,16.17
2018-05-07T05:14:03.206Z,14.17
2018-05-07T05:16:30.740Z,14.73
2018-05-07T05:18:58.331Z,13.73
2018-05-07T05:21:25.926Z,14.20
2018-05-07T05:23:53.443Z,17.60
2018-05-07T05:26:20.982Z,12.87
2018-05-07T05:28:48.553Z,13.23
2018-05-07T05:31:16.121Z,12.73
2018-05-07T05:33:43.703Z,14.23
2018-05-07T05:36:11.239Z,13.93
2018-05-07T05:38:39.358Z,15.33
2018-05-07T05:41:06.922Z,12.53
2018-05-07T05:43:35.324Z,13.00
2018-05-07T05:46:02.851Z,14.33
2018-05-07T05:48:30.431Z,11.90
2018-05-07T05:50:58.007Z,17.63
2018-05-07T05:53:25.586Z,12.13
2018-05-07T05:55:53.864Z,14.23
2018-05-07T05:58:22.182Z,11.93
2018-05-07T06:00:49.750Z,14.17
2018-05-07T06:03:17.306Z,12.17
2018-05-07T06:05:44.839Z,12.30
2018-05-07T06:08:12.428Z,12.73
2018-05-07T06:10:40.044Z,11.43
2018-05-07T06:13:07.572Z,11.87
2018-05-07T06:15:35.104Z,12.17
2018-05-07T06:18:02.698Z,10.50
2018-05-07T06:20:30.267Z,11.43
2018-05-07T06:22:59.510Z,11.87
2018-05-07T06:25:27.812Z,10.93
2018-05-07T06:27:55.401Z,17.43
2018-05-07T06:30:23.716Z,10.80
2018-05-07T06:32:51.277Z,12.03
2018-05-07T06:35:19.556Z,9.30
2018-05-07T06:37:47.139Z,9.80
2018-05-07T06:40:14.725Z,11.43
2018-05-07T06:42:43.010Z,9.93
2018-05-07T06:45:10.602Z,10.57
2018-05-07T06:47:38.190Z,10.40
2018-05-07T06:50:05.758Z,11.53
2018-05-07T06:52:33.321Z,11.33
2018-05-07T06:55:01.617Z,7.80
2018-05-07T06:57:29.192Z,9.33
2018-05-07T06:59:56.715Z,12.60
2018-05-07T07:02:24.362Z,9.63
2018-05-07T07:04:51.854Z,12.27
2018-05-07T07:07:20.745Z,10.93
2018-05-07T07:09:48.311Z,8.83
2018-05-07T07:12:15.840Z,12.30
2018-05-07T07:14:44.181Z,10.47
2018-05-07T07:17:11.759Z,9.23
2018-05-07T07:19:40.141Z,11.10
2018-05-07T07:22:07.695Z,8.93
2018-05-07T07:24:35.270Z,9.90
2018-05-07T07:27:03.601Z,8.40
2018-05-07T07:29:33.074Z,9.73
2018-05-07T07:32:01.444Z,11.43
2018-05-07T07:34:28.995Z,8.80
2018-05-07T07:36:56.541Z,10.13
2018-05-07T07:39:24.194Z,8.37
2018-05-07T07:41:51.655Z,9.63
2018-05-07T07:44:20.004Z,8.70
2018-05-07T07:46:47.555Z,8.83
2018-05-07T07:49:15.110Z,7.43
2018-05-07T07:51:42.695Z,8.10
2018-05-07T07:54:11.019Z,8.23
2018-05-07T07:56:38.543Z,10.17
2018-05-07T07:59:06.143Z,7.83
2018-05-07T08:01:33.692Z,7.70
2018-05-07T08:04:01.267Z,10.20
2018-05-07T08:06:28.830Z,8.17
2018-05-07T08:08:56.380Z,7.53
2018-05-07T08:11:23.974Z,10.33
2018-05-07T08:13:52.258Z,11.00
2018-05-07T08:16:20.577Z,11.23
2018-05-07T08:18:48.868Z,9.67
2018-05-07T08:21:16.434Z,8.80
2018-05-07T08:23:43.964Z,6.87
2018-05-07T08:26:11.540Z,7.43
2018-05-07T08:28:39.070Z,8.23
2018-05-07T08:31:06.645Z,7.30
2018-05-07T08:33:35.194Z,9.67
2018-05-07T08:36:06.060Z,7.03
2018-05-07T08:38:33.590Z,9.07
2018-05-07T08:41:01.152Z,7.63
2018-05-07T08:43:28.730Z,6.83
2018-05-07T08:45:56.292Z,6.03
2018-05-07T08:48:23.817Z,6.37
2018-05-07T08:50:51.405Z,6.60
2018-05-07T08:53:18.961Z,7.83
2018-05-07T08:55:46.520Z,6.43
2018-05-07T08:58:14.065Z,7.83
2018-05-07T09:00:42.419Z,6.83
2018-05-07T09:03:10.006Z,7.83
2018-05-07T09:05:37.574Z,7.67
2018-05-07T09:08:05.191Z,5.63
2018-05-07T09:10:32.723Z,5.87
2018-05-07T09:13:00.232Z,7.87
2018-05-07T09:15:27.788Z,8.17
2018-05-07T09:17:55.316Z,9.23
2018-05-07T09:20:24.427Z,9.17
2018-05-07T09:22:51.985Z,6.07
2018-05-07T09:25:19.561Z,7.33
2018-05-07T09:27:47.081Z,10.47
2018-05-07T09:30:15.438Z,8.07
2018-05-07T09:32:42.981Z,8.80
2018-05-07T09:35:10.578Z,11.27
2018-05-07T09:37:38.924Z,6.37
2018-05-07T09:40:06.477Z,7.60
2018-05-07T09:42:34.180Z,6.30
2018-05-07T09:45:01.718Z,6.93
2018-05-07T09:47:29.257Z,9.33
2018-05-07T09:49:56.836Z,7.47
2018-05-07T09:52:25.125Z,6.80
2018-05-07T09:54:52.710Z,6.40
2018-05-07T09:57:20.268Z,6.80
2018-05-07T09:59:47.793Z,6.53
2018-05-07T10:02:16.127Z,7.30
2018-05-07T10:04:44.269Z,7.60
2018-05-07T10:07:11.828Z,8.33
2018-05-07T10:09:39.393Z,5.80
2018-05-07T10:12:07.075Z,6.27
2018-05-07T10:14:34.659Z,6.30
2018-05-07T10:17:02.269Z,5.97
2018-05-07T10:19:30.650Z,7.07
2018-05-07T10:21:58.218Z,5.63
2018-05-07T10:24:25.748Z,7.20
2018-05-07T10:26:53.356Z,6.63
2018-05-07T10:29:20.933Z,9.87
2018-05-07T10:31:48.462Z,6.20
2018-05-07T10:34:16.019Z,6.33
2018-05-07T10:36:43.553Z,6.47
2018-05-07T10:39:11.135Z,6.27
2018-05-07T10:41:38.720Z,6.70
2018-05-07T10:44:06.314Z,5.57
2018-05-07T10:46:33.859Z,6.37
2018-05-07T10:49:02.185Z,4.67
2018-05-07T10:51:29.765Z,5.80
2018-05-07T10:53:57.320Z,4.87
2018-05-07T10:56:24.957Z,7.47
2018-05-07T10:58:52.597Z,6.07
2018-05-07T11:46:48.260Z,4.77
2018-05-07T11:49:16.616Z,4.30
2018-05-07T11:51:44.181Z,5.73
2018-05-07T11:54:11.786Z,6.57
2018-05-07T11:56:40.118Z,8.13
2018-05-07T11:59:07.707Z,4.40
2018-05-07T12:01:35.326Z,5.27
2018-05-07T12:04:02.900Z,5.03
2018-05-07T12:06:30.510Z,5.57
2018-05-07T12:08:58.181Z,4.80
2018-05-07T12:11:26.498Z,5.07
2018-05-07T12:13:54.828Z,5.37
2018-05-07T12:16:22.433Z,7.20
2018-05-07T12:18:50.022Z,5.50
2018-05-07T12:21:17.613Z,7.73
2018-05-07T12:23:45.173Z,8.13
2018-05-07T12:26:12.820Z,5.33
2018-05-07T12:28:43.974Z,6.67
2018-05-07T12:31:13.399Z,6.33
2018-05-07T12:33:40.992Z,6.03
2018-05-07T12:36:08.658Z,6.50
2018-05-07T12:38:36.262Z,5.53
2018-05-07T12:41:03.883Z,5.77
2018-05-07T12:43:31.442Z,5.90
2018-05-07T12:45:59.044Z,7.67
2018-05-07T12:48:26.667Z,4.70
2018-05-07T12:50:54.292Z,6.33
2018-05-07T12:53:22.611Z,6.83
2018-05-07T12:55:50.187Z,4.80
2018-05-07T12:58:17.751Z,5.17
2018-05-07T13:00:45.354Z,6.93
2018-05-07T13:03:13.677Z,4.83
2018-05-07T13:05:41.275Z,3.93
2018-05-07T13:08:09.661Z,6.37
2018-05-07T13:10:38.068Z,6.17
2018-05-07T13:13:05.740Z,5.20
2018-05-07T13:15:33.304Z,4.80
2018-05-07T13:18:00.898Z,8.23
2018-05-07T13:20:28.474Z,7.53
2018-05-07T13:22:56.058Z,7.07
2018-05-07T13:25:23.622Z,6.20
2018-05-07T13:27:51.212Z,7.50
2018-05-07T13:30:18.835Z,6.73
2018-05-07T13:32:46.437Z,7.90
2018-05-07T13:35:13.979Z,4.87
2018-05-07T13:37:41.543Z,6.30
2018-05-07T13:40:09.133Z,6.60
2018-05-07T13:42:36.737Z,6.63
2018-05-07T13:45:04.304Z,6.73
2018-05-07T13:47:31.909Z,5.97
2018-05-07T13:50:00.233Z,7.93
2018-05-07T13:52:27.814Z,6.77
2018-05-07T13:54:55.359Z,7.20
2018-05-07T13:57:22.994Z,6.43
2018-05-07T13:59:50.547Z,8.10
2018-05-07T14:02:18.171Z,8.00
2018-05-07T14:04:45.722Z,6.30
2018-05-07T14:07:13.303Z,9.53
2018-05-07T14:09:40.924Z,8.50
2018-05-07T14:12:08.528Z,9.83
2018-05-07T14:14:36.898Z,8.67
2018-05-07T14:17:04.543Z,7.37
2018-05-07T14:19:32.090Z,8.87
2018-05-07T14:21:59.741Z,8.60
2018-05-07T14:24:27.335Z,8.73
2018-05-07T14:26:54.900Z,10.63
2018-05-07T14:29:23.243Z,12.43
2018-05-07T14:31:50.842Z,10.20
2018-05-07T14:34:19.245Z,8.80
2018-05-07T14:36:46.838Z,10.13
2018-05-07T14:39:14.409Z,7.90
2018-05-07T14:41:42.077Z,6.43
2018-05-07T14:44:09.654Z,8.93
2018-05-07T14:46:38.016Z,7.13
2018-05-07T14:49:05.600Z,7.33
2018-05-07T14:51:33.980Z,8.37
2018-05-07T14:54:01.585Z,8.53
2018-05-07T14:56:29.126Z,5.93
2018-05-07T14:58:56.756Z,6.00
2018-05-07T15:01:24.312Z,6.80
2018-05-07T15:03:52.676Z,6.73
2018-05-07T15:06:21.055Z,5.00
2018-05-07T15:08:49.436Z,17.20
2018-05-07T15:11:17.021Z,25.63
2018-05-07T15:13:44.684Z,21.27
2018-05-07T15:16:12.979Z,26.97
2018-05-07T15:18:40.575Z,20.67
2018-05-07T15:21:08.109Z,12.77
2018-05-07T15:23:35.822Z,23.77
2018-05-07T15:26:03.429Z,24.90
2018-05-07T15:28:31.600Z,21.73
2018-05-07T15:30:59.208Z,28.20
2018-05-07T15:33:27.595Z,26.33
2018-05-07T15:35:55.921Z,23.80
2018-05-07T15:38:23.526Z,21.67
2018-05-07T15:40:51.077Z,21.97
2018-05-07T15:43:19.471Z,20.23
2018-05-07T15:45:47.057Z,19.33
2018-05-07T15:48:14.606Z,18.70
2018-05-07T15:50:42.189Z,24.63
2018-05-07T15:53:09.808Z,17.97
2018-05-07T15:55:37.377Z,28.33
2018-05-07T15:58:05.034Z,28.20
2018-05-07T16:00:33.424Z,20.23
2018-05-07T16:03:01.028Z,24.83
2018-05-07T16:05:28.613Z,24.37
2018-05-07T16:07:56.973Z,24.53
2018-05-07T16:10:26.354Z,21.43
2018-05-07T16:12:53.959Z,17.50
2018-05-07T16:15:21.546Z,22.90
2018-05-07T16:17:49.152Z,17.53
2018-05-07T16:20:17.503Z,18.20
2018-05-07T16:22:45.102Z,18.37
2018-05-07T16:25:13.467Z,17.27
2018-05-07T16:27:41.797Z,16.30
2018-05-07T16:30:09.377Z,18.83
2018-05-07T16:32:37.018Z,15.40
2018-05-07T16:35:04.607Z,16.70
2018-05-07T16:37:32.243Z,12.43
2018-05-07T16:39:59.808Z,13.37
2018-05-07T16:42:27.445Z,14.93
2018-05-07T16:44:55.007Z,16.70
2018-05-07T16:47:22.616Z,10.87
2018-05-07T16:49:50.212Z,16.03
2018-05-07T16:52:17.810Z,12.47
2018-05-07T16:54:47.090Z,14.53
2018-05-07T16:57:14.667Z,10.83
2018-05-07T16:59:42.207Z,9.83
2018-05-07T17:02:09.802Z,10.77
2018-05-07T17:04:37.422Z,12.97
2018-05-07T17:07:04.972Z,10.43
2018-05-07T17:09:32.551Z,12.57
2018-05-07T17:12:00.110Z,11.10
2018-05-07T17:14:27.991Z,10.70
2018-05-07T17:16:55.606Z,9.60
2018-05-07T17:19:23.245Z,8.80
2018-05-07T17:21:50.877Z,10.80
2018-05-07T17:24:18.538Z,11.73
2018-05-07T17:26:46.072Z,12.23
2018-05-07T17:29:13.703Z,14.93
2018-05-07T17:31:41.291Z,11.07
2018-05-07T17:34:08.901Z,13.03
2018-05-07T17:36:36.506Z,15.53
2018-05-07T17:39:04.240Z,14.07
2018-05-07T17:41:31.841Z,11.23
2018-05-07T17:44:11.134Z,11.47
2018-05-07T17:49:45.297Z,18.70
2018-05-07T17:52:12.905Z,17.37
2018-05-07T17:54:40.636Z,12.67
2018-05-07T17:57:08.153Z,11.63
2018-05-07T17:59:35.739Z,12.33
2018-05-07T18:02:03.325Z,10.87
2018-05-07T18:04:31.241Z,10.40
2018-05-07T18:06:58.645Z,13.20
2018-05-07T18:09:27.039Z,8.53
2018-05-07T18:11:55.377Z,9.27
2018-05-07T18:14:22.986Z,8.50
2018-05-07T18:16:50.577Z,12.50
2018-05-07T18:19:18.261Z,11.23
2018-05-07T18:21:45.851Z,11.37
2018-05-07T18:24:14.164Z,10.60
2018-05-07T18:26:41.794Z,11.10
2018-05-07T18:29:09.367Z,11.97
2018-05-07T18:31:37.423Z,14.70
2018-05-07T18:34:05.020Z,10.03
2018-05-07T18:36:32.630Z,11.97
2018-05-07T18:39:00.192Z,13.13
2018-05-07T18:41:28.564Z,10.57
2018-05-07T18:43:56.124Z,9.30
2018-05-07T18:46:24.505Z,12.83
2018-05-07T18:48:52.852Z,11.33
2018-05-07T18:51:20.485Z,10.93
2018-05-07T18:53:48.041Z,13.90
2018-05-07T18:56:16.388Z,12.47
2018-05-07T18:58:43.957Z,12.50
2018-05-07T19:01:11.568Z,11.47
2018-05-07T19:03:39.941Z,14.10
2018-05-07T19:06:07.567Z,17.07
2018-05-07T19:08:35.124Z,17.13
2018-05-07T19:11:02.728Z,14.97
2018-05-07T19:13:31.112Z,12.43
2018-05-07T19:15:59.523Z,13.87
2018-05-07T19:18:27.102Z,15.00
2018-05-07T19:20:54.735Z,16.17
2018-05-07T19:23:22.347Z,15.20
2018-05-07T19:25:50.743Z,12.43
2018-05-07T19:28:19.088Z,11.77
2018-05-07T19:30:46.700Z,15.27
2018-05-07T19:33:15.100Z,15.03
2018-05-07T19:35:42.697Z,15.23
2018-05-07T19:38:10.309Z,17.37
2018-05-07T19:40:37.909Z,13.97
2018-05-07T19:43:05.515Z,11.37
2018-05-07T19:45:33.108Z,12.40
2018-05-07T19:48:00.660Z,10.97
2018-05-07T19:50:28.270Z,20.27
2018-05-07T19:52:56.629Z,19.00
2018-05-07T19:55:24.245Z,15.80
2018-05-07T19:57:51.850Z,17.30
2018-05-07T20:00:19.465Z,13.83
2018-05-07T20:02:47.072Z,16.70
2018-05-07T20:05:14.671Z,15.83
2018-05-07T20:07:42.318Z,19.67
2018-05-07T20:10:10.655Z,18.33
2018-05-07T20:12:38.298Z,18.13
2018-05-07T20:15:05.869Z,16.97
2018-05-07T20:17:33.521Z,18.37
2018-05-07T20:20:01.231Z,16.33
2018-05-07T20:22:28.730Z,17.37
2018-05-07T20:24:56.380Z,15.77
2018-05-07T20:27:24.019Z,18.17
2018-05-07T20:29:51.585Z,16.17
2018-05-07T20:32:19.186Z,13.67
2018-05-07T20:34:46.814Z,14.87
2018-05-07T20:37:14.372Z,18.07
2018-05-07T20:39:41.980Z,13.00
2018-05-07T20:42:10.417Z,15.80
2018-05-07T20:44:38.043Z,15.57
2018-05-07T20:47:05.669Z,15.07
2018-05-07T20:49:33.266Z,13.43
2018-05-07T20:52:00.849Z,14.97
2018-05-07T20:54:28.453Z,20.17
2018-05-07T20:56:56.776Z,17.10
2018-05-07T20:59:24.394Z,15.70
2018-05-07T21:01:52.760Z,16.97
2018-05-07T21:04:20.385Z,18.50
2018-05-07T21:06:47.957Z,17.60
2018-05-07T21:09:15.613Z,15.93
2018-05-07T21:11:43.230Z,18.67
2018-05-07T21:14:10.811Z,20.87
2018-05-07T21:16:38.429Z,18.03
2018-05-07T21:19:06.828Z,20.20
2018-05-07T21:21:34.451Z,15.13
2018-05-07T21:24:02.068Z,16.73
2018-05-07T21:26:29.684Z,15.60
2018-05-07T21:28:58.058Z,16.83
2018-05-07T21:31:26.463Z,12.57
2018-05-07T21:33:54.062Z,14.13
2018-05-07T21:36:21.630Z,16.40
2018-05-07T21:38:49.984Z,14.27
2018-05-07T21:41:17.588Z,15.53
2018-05-07T21:43:45.991Z,12.43
2018-05-07T21:46:14.549Z,14.07
2018-05-07T21:48:42.192Z,19.20
2018-05-07T21:51:09.907Z,13.17
2018-05-07T21:53:37.537Z,14.83
2018-05-07T21:56:05.904Z,17.77
2018-05-07T21:58:34.280Z,13.57
2018-05-07T22:01:02.681Z,16.10
2018-05-07T22:03:30.302Z,13.97
2018-05-07T22:05:57.942Z,12.83
2018-05-07T22:08:25.552Z,14.80
2018-05-07T22:10:53.972Z,16.80
2018-05-07T22:13:21.593Z,19.40
2018-05-07T22:15:49.288Z,15.23
2018-05-07T22:18:16.931Z,17.17
2018-05-07T22:20:46.688Z,17.73
2018-05-07T22:23:15.115Z,16.27
2018-05-07T22:25:42.747Z,14.60
2018-05-07T22:28:11.248Z,17.50
2018-05-07T22:30:38.902Z,11.30
2018-05-07T22:33:06.527Z,14.60
2018-05-07T22:35:34.172Z,17.80
2018-05-07T22:38:01.788Z,12.00
2018-05-07T22:40:29.459Z,17.93
2018-05-07T22:42:57.325Z,16.27
2018-05-07T22:45:24.918Z,17.47
2018-05-07T22:50:15.038Z,19.07
2018-05-07T22:52:42.613Z,17.27
2018-05-07T22:55:20.043Z,15.50
2018-05-07T22:57:47.570Z,14.20
2018-05-07T23:00:15.918Z,14.07
2018-05-07T23:02:43.484Z,17.13
2018-05-07T23:05:11.026Z,20.83
2018-05-07T23:07:39.219Z,16.33
2018-05-07T23:10:06.979Z,16.87
2018-05-07T23:12:35.366Z,20.43
2018-05-07T23:15:02.992Z,14.27
2018-05-07T23:17:30.564Z,18.03
2018-05-07T23:19:58.135Z,19.73
2018-05-07T23:22:25.661Z,22.03
2018-05-07T23:24:53.239Z,15.83
2018-05-07T23:27:20.813Z,17.83
2018-05-07T23:29:48.338Z,18.87
2018-05-07T23:32:15.913Z,16.83
2018-05-07T23:34:44.217Z,19.53
2018-05-07T23:37:11.872Z,16.13
2018-05-07T23:39:39.398Z,20.40
2018-05-07T23:42:07.021Z,20.40
2018-05-07T23:44:35.353Z,16.17
2018-05-07T23:47:02.921Z,21.20
2018-05-07T23:49:30.442Z,13.97
2018-05-07T23:51:58.011Z,13.97
2018-05-07T23:54:32.224Z,17.80
2018-05-07T23:56:59.755Z,17.13
2018-05-07T23:59:27.323Z,23.47
